sensor_id;sensor_type;location;lat;lon;timestamp;P1;durP1;ratioP1;P2;durP2;ratioP2
3197;SDS011;1611;49.394;11.136;2023-07-30T00:01:58;3.20;;;2.90;;
3197;SDS011;1611;49.394;11.136;2023-07-30T00:04:25;3.53;;;2.90;;
3197;SDS011;1611;49.394;11.136;2023-07-30T00:06:53;5.00;;;2.73;;
3197;SDS011;1611;49.394;11.136;2023-07-30T00:09:20;2.80;;;2.60;;
3197;SDS011;1611;49.394;11.136;2023-07-30T00:11:48;4.10;;;2.80;;
3197;SDS011;1611;49.394;11.136;2023-07-30T00:14:14;4.10;;;3.00;;
3197;SDS011;1611;49.394;11.136;2023-07-30T00:16:41;6.37;;;3.53;;
3197;SDS011;1611;49.394;11.136;2023-07-30T00:19:08;6.20;;;2.70;;
3197;SDS011;1611;49.394;11.136;2023-07-30T00:21:35;2.80;;;2.63;;
3197;SDS011;1611;49.394;11.136;2023-07-30T00:24:03;3.40;;;3.20;;
3197;SDS011;1611;49.394;11.136;2023-07-30T00:26:30;3.50;;;3.20;;
3197;SDS011;1611;49.394;11.136;2023-07-30T00:28:57;5.47;;;2.90;;
3197;SDS011;1611;49.394;11.136;2023-07-30T00:31:24;4.27;;;2.70;;
3197;SDS011;1611;49.394;11.136;2023-07-30T00:33:51;3.60;;;2.33;;
3197;SDS011;1611;49.394;11.136;2023-07-30T00:36:17;3.77;;;3.57;;
3197;SDS011;1611;49.394;11.136;2023-07-30T00:38:44;3.40;;;3.10;;
3197;SDS011;1611;49.394;11.136;2023-07-30T00:41:12;4.23;;;3.50;;
3197;SDS011;1611;49.394;11.136;2023-07-30T00:43:39;7.70;;;3.17;;
3197;SDS011;1611;49.394;11.136;2023-07-30T00:46:06;3.00;;;2.70;;
3197;SDS011;1611;49.394;11.136;2023-07-30T00:48:33;4.50;;;2.50;;
3197;SDS011;1611;49.394;11.136;2023-07-30T00:50:59;3.93;;;2.73;;
3197;SDS011;1611;49.394;11.136;2023-07-30T00:53:26;6.00;;;2.90;;
3197;SDS011;1611;49.394;11.136;2023-07-30T00:55:54;8.43;;;2.83;;
3197;SDS011;1611;49.394;11.136;2023-07-30T00:58:22;4.70;;;2.67;;
3197;SDS011;1611;49.394;11.136;2023-07-30T01:00:50;11.97;;;2.90;;
3197;SDS011;1611;49.394;11.136;2023-07-30T01:03:17;4.20;;;2.70;;
3197;SDS011;1611;49.394;11.136;2023-07-30T01:05:44;9.37;;;2.40;;
3197;SDS011;1611;49.394;11.136;2023-07-30T01:08:11;7.93;;;2.60;;
3197;SDS011;1611;49.394;11.136;2023-07-30T01:10:38;15.57;;;4.20;;
3197;SDS011;1611;49.394;11.136;2023-07-30T01:13:06;3.10;;;2.90;;
3197;SDS011;1611;49.394;11.136;2023-07-30T01:15:37;8.63;;;3.03;;
3197;SDS011;1611;49.394;11.136;2023-07-30T01:18:04;3.00;;;2.60;;
3197;SDS011;1611;49.394;11.136;2023-07-30T01:20:31;3.00;;;2.53;;
3197;SDS011;1611;49.394;11.136;2023-07-30T01:22:59;3.90;;;2.83;;
3197;SDS011;1611;49.394;11.136;2023-07-30T01:25:27;6.53;;;3.10;;
3197;SDS011;1611;49.394;11.136;2023-07-30T01:27:57;2.80;;;2.60;;
3197;SDS011;1611;49.394;11.136;2023-07-30T01:30:27;3.43;;;3.23;;
3197;SDS011;1611;49.394;11.136;2023-07-30T01:32:57;3.90;;;3.53;;
3197;SDS011;1611;49.394;11.136;2023-07-30T01:35:25;9.53;;;3.40;;
3197;SDS011;1611;49.394;11.136;2023-07-30T01:37:53;3.37;;;3.17;;
3197;SDS011;1611;49.394;11.136;2023-07-30T01:40:22;9.80;;;3.20;;
3197;SDS011;1611;49.394;11.136;2023-07-30T01:42:49;6.40;;;3.07;;
3197;SDS011;1611;49.394;11.136;2023-07-30T01:45:16;4.73;;;3.53;;
3197;SDS011;1611;49.394;11.136;2023-07-30T01:47:43;5.03;;;3.00;;
3197;SDS011;1611;49.394;11.136;2023-07-30T01:50:10;9.90;;;3.37;;
3197;SDS011;1611;49.394;11.136;2023-07-30T01:52:37;2.87;;;2.77;;
3197;SDS011;1611;49.394;11.136;2023-07-30T01:55:04;11.10;;;3.13;;
3197;SDS011;1611;49.394;11.136;2023-07-30T01:57:33;8.17;;;3.90;;
3197;SDS011;1611;49.394;11.136;2023-07-30T01:59:59;4.90;;;3.10;;
3197;SDS011;1611;49.394;11.136;2023-07-30T02:02:26;3.83;;;3.03;;
3197;SDS011;1611;49.394;11.136;2023-07-30T02:04:53;10.60;;;3.13;;
3197;SDS011;1611;49.394;11.136;2023-07-30T02:07:20;5.17;;;3.80;;
3197;SDS011;1611;49.394;11.136;2023-07-30T02:09:46;15.37;;;3.40;;
3197;SDS011;1611;49.394;11.136;2023-07-30T02:12:13;3.43;;;3.13;;
3197;SDS011;1611;49.394;11.136;2023-07-30T02:14:41;5.13;;;3.03;;
3197;SDS011;1611;49.394;11.136;2023-07-30T02:17:08;10.40;;;4.03;;
3197;SDS011;1611;49.394;11.136;2023-07-30T02:19:35;5.70;;;3.80;;
3197;SDS011;1611;49.394;11.136;2023-07-30T02:22:01;5.77;;;4.10;;
3197;SDS011;1611;49.394;11.136;2023-07-30T02:24:28;5.20;;;4.17;;
3197;SDS011;1611;49.394;11.136;2023-07-30T02:26:55;4.33;;;4.03;;
3197;SDS011;1611;49.394;11.136;2023-07-30T02:29:22;8.80;;;4.70;;
3197;SDS011;1611;49.394;11.136;2023-07-30T02:31:50;4.97;;;4.43;;
3197;SDS011;1611;49.394;11.136;2023-07-30T02:34:17;5.57;;;3.80;;
3197;SDS011;1611;49.394;11.136;2023-07-30T02:36:43;8.87;;;3.97;;
3197;SDS011;1611;49.394;11.136;2023-07-30T02:39:10;7.87;;;4.27;;
3197;SDS011;1611;49.394;11.136;2023-07-30T02:41:37;6.93;;;5.00;;
3197;SDS011;1611;49.394;11.136;2023-07-30T02:44:04;6.63;;;4.80;;
3197;SDS011;1611;49.394;11.136;2023-07-30T02:46:30;7.53;;;4.80;;
3197;SDS011;1611;49.394;11.136;2023-07-30T02:48:58;5.10;;;4.70;;
3197;SDS011;1611;49.394;11.136;2023-07-30T02:51:25;7.33;;;4.40;;
3197;SDS011;1611;49.394;11.136;2023-07-30T02:53:52;4.30;;;3.93;;
3197;SDS011;1611;49.394;11.136;2023-07-30T02:56:23;8.43;;;4.30;;
3197;SDS011;1611;49.394;11.136;2023-07-30T02:58:49;7.60;;;4.60;;
3197;SDS011;1611;49.394;11.136;2023-07-30T03:01:16;5.40;;;4.17;;
3197;SDS011;1611;49.394;11.136;2023-07-30T03:03:43;10.23;;;5.27;;
3197;SDS011;1611;49.394;11.136;2023-07-30T03:06:11;5.00;;;4.60;;
3197;SDS011;1611;49.394;11.136;2023-07-30T03:08:39;7.70;;;4.23;;
3197;SDS011;1611;49.394;11.136;2023-07-30T03:11:05;4.57;;;3.70;;
3197;SDS011;1611;49.394;11.136;2023-07-30T03:13:32;13.20;;;4.27;;
3197;SDS011;1611;49.394;11.136;2023-07-30T03:15:59;4.40;;;4.10;;
3197;SDS011;1611;49.394;11.136;2023-07-30T03:18:26;6.60;;;5.17;;
3197;SDS011;1611;49.394;11.136;2023-07-30T03:20:57;6.60;;;4.73;;
3197;SDS011;1611;49.394;11.136;2023-07-30T03:23:25;5.00;;;4.50;;
3197;SDS011;1611;49.394;11.136;2023-07-30T03:25:52;9.23;;;5.40;;
3197;SDS011;1611;49.394;11.136;2023-07-30T03:28:19;7.00;;;4.20;;
3197;SDS011;1611;49.394;11.136;2023-07-30T03:30:46;13.17;;;5.17;;
3197;SDS011;1611;49.394;11.136;2023-07-30T03:33:12;5.77;;;4.70;;
3197;SDS011;1611;49.394;11.136;2023-07-30T03:35:39;8.33;;;4.57;;
3197;SDS011;1611;49.394;11.136;2023-07-30T03:38:06;10.87;;;4.90;;
3197;SDS011;1611;49.394;11.136;2023-07-30T03:40:34;9.93;;;5.50;;
3197;SDS011;1611;49.394;11.136;2023-07-30T03:43:01;10.33;;;5.40;;
3197;SDS011;1611;49.394;11.136;2023-07-30T03:45:27;6.50;;;4.70;;
3197;SDS011;1611;49.394;11.136;2023-07-30T03:47:54;7.13;;;4.90;;
3197;SDS011;1611;49.394;11.136;2023-07-30T03:50:21;5.60;;;5.10;;
3197;SDS011;1611;49.394;11.136;2023-07-30T03:52:47;7.07;;;4.90;;
3197;SDS011;1611;49.394;11.136;2023-07-30T03:55:14;5.93;;;4.50;;
3197;SDS011;1611;49.394;11.136;2023-07-30T03:57:43;6.70;;;4.60;;
3197;SDS011;1611;49.394;11.136;2023-07-30T04:00:10;7.67;;;5.43;;
3197;SDS011;1611;49.394;11.136;2023-07-30T04:02:36;11.60;;;5.27;;
3197;SDS011;1611;49.394;11.136;2023-07-30T04:05:03;9.60;;;5.10;;
3197;SDS011;1611;49.394;11.136;2023-07-30T04:07:30;6.97;;;5.00;;
3197;SDS011;1611;49.394;11.136;2023-07-30T04:09:57;5.10;;;4.80;;
3197;SDS011;1611;49.394;11.136;2023-07-30T04:12:24;5.93;;;5.33;;
3197;SDS011;1611;49.394;11.136;2023-07-30T04:14:52;6.87;;;4.37;;
3197;SDS011;1611;49.394;11.136;2023-07-30T04:17:18;8.40;;;4.70;;
3197;SDS011;1611;49.394;11.136;2023-07-30T04:19:45;4.90;;;4.50;;
3197;SDS011;1611;49.394;11.136;2023-07-30T04:22:12;5.50;;;4.90;;
3197;SDS011;1611;49.394;11.136;2023-07-30T04:24:39;4.57;;;4.27;;
3197;SDS011;1611;49.394;11.136;2023-07-30T04:27:06;8.50;;;4.40;;
3197;SDS011;1611;49.394;11.136;2023-07-30T04:29:33;9.03;;;4.47;;
3197;SDS011;1611;49.394;11.136;2023-07-30T04:32:01;4.27;;;3.97;;
3197;SDS011;1611;49.394;11.136;2023-07-30T04:34:28;6.20;;;4.73;;
3197;SDS011;1611;49.394;11.136;2023-07-30T04:36:55;8.00;;;4.40;;
3197;SDS011;1611;49.394;11.136;2023-07-30T04:39:21;4.87;;;4.47;;
3197;SDS011;1611;49.394;11.136;2023-07-30T04:41:48;5.17;;;4.77;;
3197;SDS011;1611;49.394;11.136;2023-07-30T04:44:15;4.63;;;4.33;;
3197;SDS011;1611;49.394;11.136;2023-07-30T04:46:42;4.53;;;4.23;;
3197;SDS011;1611;49.394;11.136;2023-07-30T04:49:10;4.60;;;4.20;;
3197;SDS011;1611;49.394;11.136;2023-07-30T04:51:37;7.63;;;5.10;;
3197;SDS011;1611;49.394;11.136;2023-07-30T04:54:04;4.70;;;4.40;;
3197;SDS011;1611;49.394;11.136;2023-07-30T04:56:31;5.57;;;4.53;;
3197;SDS011;1611;49.394;11.136;2023-07-30T04:58:57;5.90;;;4.73;;
3197;SDS011;1611;49.394;11.136;2023-07-30T05:01:24;4.83;;;4.33;;
3197;SDS011;1611;49.394;11.136;2023-07-30T05:03:51;5.97;;;4.87;;
3197;SDS011;1611;49.394;11.136;2023-07-30T05:06:19;4.70;;;4.30;;
3197;SDS011;1611;49.394;11.136;2023-07-30T05:08:46;10.13;;;4.70;;
3197;SDS011;1611;49.394;11.136;2023-07-30T05:11:13;5.03;;;4.53;;
3197;SDS011;1611;49.394;11.136;2023-07-30T05:13:39;8.20;;;4.67;;
3197;SDS011;1611;49.394;11.136;2023-07-30T05:16:06;5.27;;;4.10;;
3197;SDS011;1611;49.394;11.136;2023-07-30T05:18:33;5.37;;;4.93;;
3197;SDS011;1611;49.394;11.136;2023-07-30T05:21:00;7.63;;;4.20;;
3197;SDS011;1611;49.394;11.136;2023-07-30T05:23:28;4.57;;;4.30;;
3197;SDS011;1611;49.394;11.136;2023-07-30T05:25:54;4.90;;;4.53;;
3197;SDS011;1611;49.394;11.136;2023-07-30T05:28:21;6.07;;;5.57;;
3197;SDS011;1611;49.394;11.136;2023-07-30T05:30:48;5.40;;;4.73;;
3197;SDS011;1611;49.394;11.136;2023-07-30T05:33:15;5.70;;;3.70;;
3197;SDS011;1611;49.394;11.136;2023-07-30T05:35:42;4.17;;;3.87;;
3197;SDS011;1611;49.394;11.136;2023-07-30T05:38:09;5.20;;;4.70;;
3197;SDS011;1611;49.394;11.136;2023-07-30T05:40:37;5.37;;;4.40;;
3197;SDS011;1611;49.394;11.136;2023-07-30T05:43:04;4.07;;;3.87;;
3197;SDS011;1611;49.394;11.136;2023-07-30T05:45:30;7.17;;;5.07;;
3197;SDS011;1611;49.394;11.136;2023-07-30T05:47:57;4.00;;;3.70;;
3197;SDS011;1611;49.394;11.136;2023-07-30T05:50:24;9.73;;;4.03;;
3197;SDS011;1611;49.394;11.136;2023-07-30T05:52:51;4.60;;;4.27;;
3197;SDS011;1611;49.394;11.136;2023-07-30T05:55:17;3.70;;;3.50;;
3197;SDS011;1611;49.394;11.136;2023-07-30T05:57:45;4.10;;;3.73;;
3197;SDS011;1611;49.394;11.136;2023-07-30T06:00:12;4.20;;;3.80;;
3197;SDS011;1611;49.394;11.136;2023-07-30T06:02:39;4.30;;;3.80;;
3197;SDS011;1611;49.394;11.136;2023-07-30T06:05:06;5.77;;;3.97;;
3197;SDS011;1611;49.394;11.136;2023-07-30T06:07:33;4.23;;;3.97;;
3197;SDS011;1611;49.394;11.136;2023-07-30T06:10:00;3.50;;;3.30;;
3197;SDS011;1611;49.394;11.136;2023-07-30T06:12:27;4.40;;;4.10;;
3197;SDS011;1611;49.394;11.136;2023-07-30T06:14:55;6.57;;;4.50;;
3197;SDS011;1611;49.394;11.136;2023-07-30T06:17:22;3.73;;;3.50;;
3197;SDS011;1611;49.394;11.136;2023-07-30T06:19:48;3.57;;;3.37;;
3197;SDS011;1611;49.394;11.136;2023-07-30T06:22:15;4.73;;;3.30;;
3197;SDS011;1611;49.394;11.136;2023-07-30T06:24:43;6.50;;;3.67;;
3197;SDS011;1611;49.394;11.136;2023-07-30T06:27:10;3.60;;;3.40;;
3197;SDS011;1611;49.394;11.136;2023-07-30T06:29:37;3.73;;;3.53;;
3197;SDS011;1611;49.394;11.136;2023-07-30T06:32:06;3.97;;;3.77;;
3197;SDS011;1611;49.394;11.136;2023-07-30T06:34:33;3.70;;;3.40;;
3197;SDS011;1611;49.394;11.136;2023-07-30T06:36:59;6.70;;;3.50;;
3197;SDS011;1611;49.394;11.136;2023-07-30T06:39:26;2.87;;;2.77;;
3197;SDS011;1611;49.394;11.136;2023-07-30T06:41:53;3.80;;;3.50;;
3197;SDS011;1611;49.394;11.136;2023-07-30T06:44:20;7.47;;;3.20;;
3197;SDS011;1611;49.394;11.136;2023-07-30T06:46:49;3.20;;;3.10;;
3197;SDS011;1611;49.394;11.136;2023-07-30T06:49:17;3.03;;;2.73;;
3197;SDS011;1611;49.394;11.136;2023-07-30T06:51:44;5.23;;;3.13;;
3197;SDS011;1611;49.394;11.136;2023-07-30T06:54:11;3.63;;;2.63;;
3197;SDS011;1611;49.394;11.136;2023-07-30T06:56:37;3.70;;;3.40;;
3197;SDS011;1611;49.394;11.136;2023-07-30T06:59:04;3.50;;;3.20;;
3197;SDS011;1611;49.394;11.136;2023-07-30T07:01:31;3.90;;;3.50;;
3197;SDS011;1611;49.394;11.136;2023-07-30T07:03:57;6.00;;;3.07;;
3197;SDS011;1611;49.394;11.136;2023-07-30T07:06:25;4.30;;;3.47;;
3197;SDS011;1611;49.394;11.136;2023-07-30T07:08:52;11.67;;;3.00;;
3197;SDS011;1611;49.394;11.136;2023-07-30T07:11:19;3.30;;;3.10;;
3197;SDS011;1611;49.394;11.136;2023-07-30T07:13:46;12.03;;;3.17;;
3197;SDS011;1611;49.394;11.136;2023-07-30T07:16:12;3.30;;;2.80;;
3197;SDS011;1611;49.394;11.136;2023-07-30T07:18:39;3.63;;;3.37;;
3197;SDS011;1611;49.394;11.136;2023-07-30T07:21:06;2.73;;;2.63;;
3197;SDS011;1611;49.394;11.136;2023-07-30T07:23:35;3.00;;;2.90;;
3197;SDS011;1611;49.394;11.136;2023-07-30T07:26:02;2.80;;;2.67;;
3197;SDS011;1611;49.394;11.136;2023-07-30T07:28:29;4.10;;;3.30;;
3197;SDS011;1611;49.394;11.136;2023-07-30T07:30:55;3.37;;;3.17;;
3197;SDS011;1611;49.394;11.136;2023-07-30T07:33:22;3.00;;;2.90;;
3197;SDS011;1611;49.394;11.136;2023-07-30T07:35:49;2.83;;;2.73;;
3197;SDS011;1611;49.394;11.136;2023-07-30T07:38:16;3.00;;;2.90;;
3197;SDS011;1611;49.394;11.136;2023-07-30T07:40:44;3.00;;;2.90;;
3197;SDS011;1611;49.394;11.136;2023-07-30T07:43:11;3.03;;;2.83;;
3197;SDS011;1611;49.394;11.136;2023-07-30T07:45:37;2.90;;;2.70;;
3197;SDS011;1611;49.394;11.136;2023-07-30T07:48:04;2.90;;;2.80;;
3197;SDS011;1611;49.394;11.136;2023-07-30T07:50:31;3.17;;;2.87;;
3197;SDS011;1611;49.394;11.136;2023-07-30T07:52:58;3.10;;;2.80;;
3197;SDS011;1611;49.394;11.136;2023-07-30T07:55:24;5.33;;;2.97;;
3197;SDS011;1611;49.394;11.136;2023-07-30T07:57:52;2.70;;;2.60;;
3197;SDS011;1611;49.394;11.136;2023-07-30T08:00:19;2.90;;;2.80;;
3197;SDS011;1611;49.394;11.136;2023-07-30T08:02:46;3.10;;;2.90;;
3197;SDS011;1611;49.394;11.136;2023-07-30T08:05:13;3.07;;;2.87;;
3197;SDS011;1611;49.394;11.136;2023-07-30T08:07:41;2.80;;;2.70;;
3197;SDS011;1611;49.394;11.136;2023-07-30T08:10:09;3.10;;;2.80;;
3197;SDS011;1611;49.394;11.136;2023-07-30T08:12:36;2.97;;;2.87;;
3197;SDS011;1611;49.394;11.136;2023-07-30T08:15:05;3.03;;;2.90;;
3197;SDS011;1611;49.394;11.136;2023-07-30T08:17:32;3.83;;;3.37;;
3197;SDS011;1611;49.394;11.136;2023-07-30T08:19:59;2.73;;;2.63;;
3197;SDS011;1611;49.394;11.136;2023-07-30T08:22:25;3.87;;;3.10;;
3197;SDS011;1611;49.394;11.136;2023-07-30T08:24:52;3.17;;;3.07;;
3197;SDS011;1611;49.394;11.136;2023-07-30T08:27:19;3.87;;;3.57;;
3197;SDS011;1611;49.394;11.136;2023-07-30T08:29:45;6.33;;;2.80;;
3197;SDS011;1611;49.394;11.136;2023-07-30T08:32:13;3.47;;;3.17;;
3197;SDS011;1611;49.394;11.136;2023-07-30T08:34:40;2.33;;;2.23;;
3197;SDS011;1611;49.394;11.136;2023-07-30T08:37:07;2.70;;;2.60;;
3197;SDS011;1611;49.394;11.136;2023-07-30T08:39:34;2.80;;;2.70;;
3197;SDS011;1611;49.394;11.136;2023-07-30T08:42:00;2.33;;;2.23;;
3197;SDS011;1611;49.394;11.136;2023-07-30T08:44:28;2.50;;;2.40;;
3197;SDS011;1611;49.394;11.136;2023-07-30T08:46:55;2.70;;;2.60;;
3197;SDS011;1611;49.394;11.136;2023-07-30T08:49:23;2.70;;;2.60;;
3197;SDS011;1611;49.394;11.136;2023-07-30T08:51:53;3.33;;;3.13;;
3197;SDS011;1611;49.394;11.136;2023-07-30T08:54:20;2.70;;;2.57;;
3197;SDS011;1611;49.394;11.136;2023-07-30T08:56:49;2.97;;;2.87;;
3197;SDS011;1611;49.394;11.136;2023-07-30T08:59:17;2.50;;;2.50;;
3197;SDS011;1611;49.394;11.136;2023-07-30T09:01:45;2.60;;;2.40;;
3197;SDS011;1611;49.394;11.136;2023-07-30T09:04:16;3.00;;;2.80;;
3197;SDS011;1611;49.394;11.136;2023-07-30T09:06:48;2.33;;;2.23;;
3197;SDS011;1611;49.394;11.136;2023-07-30T09:09:15;2.87;;;2.53;;
3197;SDS011;1611;49.394;11.136;2023-07-30T09:11:42;3.13;;;2.87;;
3197;SDS011;1611;49.394;11.136;2023-07-30T09:14:09;3.63;;;2.40;;
3197;SDS011;1611;49.394;11.136;2023-07-30T09:16:36;3.13;;;2.23;;
3197;SDS011;1611;49.394;11.136;2023-07-30T09:19:02;2.77;;;2.50;;
3197;SDS011;1611;49.394;11.136;2023-07-30T09:21:32;2.37;;;2.30;;
3197;SDS011;1611;49.394;11.136;2023-07-30T09:24:03;2.30;;;2.20;;
3197;SDS011;1611;49.394;11.136;2023-07-30T09:26:39;2.30;;;2.20;;
3197;SDS011;1611;49.394;11.136;2023-07-30T09:29:08;5.40;;;2.60;;
3197;SDS011;1611;49.394;11.136;2023-07-30T09:31:43;2.83;;;2.63;;
3197;SDS011;1611;49.394;11.136;2023-07-30T09:34:14;2.20;;;2.10;;
3197;SDS011;1611;49.394;11.136;2023-07-30T09:36:43;2.20;;;2.10;;
3197;SDS011;1611;49.394;11.136;2023-07-30T09:39:15;2.93;;;2.73;;
3197;SDS011;1611;49.394;11.136;2023-07-30T09:41:43;3.70;;;2.70;;
3197;SDS011;1611;49.394;11.136;2023-07-30T09:44:10;2.87;;;2.77;;
3197;SDS011;1611;49.394;11.136;2023-07-30T09:46:41;2.80;;;2.63;;
3197;SDS011;1611;49.394;11.136;2023-07-30T09:49:08;2.10;;;2.10;;
3197;SDS011;1611;49.394;11.136;2023-07-30T09:51:36;3.10;;;3.00;;
3197;SDS011;1611;49.394;11.136;2023-07-30T09:54:03;3.53;;;2.30;;
3197;SDS011;1611;49.394;11.136;2023-07-30T09:59:01;2.97;;;2.83;;
3197;SDS011;1611;49.394;11.136;2023-07-30T10:01:28;2.47;;;2.37;;
3197;SDS011;1611;49.394;11.136;2023-07-30T10:03:57;2.50;;;2.40;;
3197;SDS011;1611;49.394;11.136;2023-07-30T10:06:24;2.67;;;2.57;;
3197;SDS011;1611;49.394;11.136;2023-07-30T10:08:53;2.30;;;2.20;;
3197;SDS011;1611;49.394;11.136;2023-07-30T10:11:24;3.27;;;2.43;;
3197;SDS011;1611;49.394;11.136;2023-07-30T10:13:53;2.80;;;2.60;;
3197;SDS011;1611;49.394;11.136;2023-07-30T10:16:24;2.20;;;2.20;;
3197;SDS011;1611;49.394;11.136;2023-07-30T10:18:53;2.43;;;2.33;;
3197;SDS011;1611;49.394;11.136;2023-07-30T10:21:23;2.40;;;2.30;;
3197;SDS011;1611;49.394;11.136;2023-07-30T10:23:57;2.60;;;2.13;;
3197;SDS011;1611;49.394;11.136;2023-07-30T10:26:26;6.43;;;2.20;;
3197;SDS011;1611;49.394;11.136;2023-07-30T10:31:50;2.33;;;2.20;;
3197;SDS011;1611;49.394;11.136;2023-07-30T10:34:19;2.20;;;2.10;;
3197;SDS011;1611;49.394;11.136;2023-07-30T10:36:46;2.77;;;2.57;;
3197;SDS011;1611;49.394;11.136;2023-07-30T10:39:15;2.97;;;2.77;;
3197;SDS011;1611;49.394;11.136;2023-07-30T10:41:43;2.63;;;2.53;;
3197;SDS011;1611;49.394;11.136;2023-07-30T10:44:17;8.10;;;3.90;;
3197;SDS011;1611;49.394;11.136;2023-07-30T10:46:45;5.30;;;3.40;;
3197;SDS011;1611;49.394;11.136;2023-07-30T10:49:14;6.80;;;3.33;;
3197;SDS011;1611;49.394;11.136;2023-07-30T10:51:40;9.93;;;2.70;;
3197;SDS011;1611;49.394;11.136;2023-07-30T10:54:07;2.87;;;2.67;;
3197;SDS011;1611;49.394;11.136;2023-07-30T10:56:34;2.67;;;2.43;;
3197;SDS011;1611;49.394;11.136;2023-07-30T10:59:03;5.70;;;2.53;;
3197;SDS011;1611;49.394;11.136;2023-07-30T11:01:31;6.27;;;2.67;;
3197;SDS011;1611;49.394;11.136;2023-07-30T11:03:58;2.30;;;2.10;;
3197;SDS011;1611;49.394;11.136;2023-07-30T11:06:26;2.27;;;2.17;;
3197;SDS011;1611;49.394;11.136;2023-07-30T11:08:53;6.17;;;2.40;;
3197;SDS011;1611;49.394;11.136;2023-07-30T11:11:20;2.10;;;2.00;;
3197;SDS011;1611;49.394;11.136;2023-07-30T11:13:49;2.53;;;2.37;;
3197;SDS011;1611;49.394;11.136;2023-07-30T11:16:16;2.00;;;2.00;;
3197;SDS011;1611;49.394;11.136;2023-07-30T11:18:43;3.40;;;2.00;;
3197;SDS011;1611;49.394;11.136;2023-07-30T11:21:12;1.87;;;1.87;;
3197;SDS011;1611;49.394;11.136;2023-07-30T11:23:41;3.90;;;1.60;;
3197;SDS011;1611;49.394;11.136;2023-07-30T11:26:09;2.33;;;2.20;;
3197;SDS011;1611;49.394;11.136;2023-07-30T11:28:40;1.97;;;1.80;;
3197;SDS011;1611;49.394;11.136;2023-07-30T11:31:07;2.57;;;2.47;;
3197;SDS011;1611;49.394;11.136;2023-07-30T11:33:35;3.27;;;2.00;;
3197;SDS011;1611;49.394;11.136;2023-07-30T11:36:05;2.33;;;2.23;;
3197;SDS011;1611;49.394;11.136;2023-07-30T11:38:33;2.73;;;2.50;;
3197;SDS011;1611;49.394;11.136;2023-07-30T11:41:02;2.67;;;2.57;;
3197;SDS011;1611;49.394;11.136;2023-07-30T11:43:30;2.50;;;2.30;;
3197;SDS011;1611;49.394;11.136;2023-07-30T11:46:07;2.50;;;2.30;;
3197;SDS011;1611;49.394;11.136;2023-07-30T11:48:35;2.20;;;2.00;;
3197;SDS011;1611;49.394;11.136;2023-07-30T11:51:01;2.23;;;2.10;;
3197;SDS011;1611;49.394;11.136;2023-07-30T11:53:44;1.90;;;1.80;;
3197;SDS011;1611;49.394;11.136;2023-07-30T11:56:20;2.30;;;2.20;;
3197;SDS011;1611;49.394;11.136;2023-07-30T11:58:49;2.00;;;2.00;;
3197;SDS011;1611;49.394;11.136;2023-07-30T12:01:17;2.20;;;2.10;;
3197;SDS011;1611;49.394;11.136;2023-07-30T12:03:44;2.37;;;2.17;;
3197;SDS011;1611;49.394;11.136;2023-07-30T12:06:12;2.20;;;2.10;;
3197;SDS011;1611;49.394;11.136;2023-07-30T12:08:39;2.40;;;2.30;;
3197;SDS011;1611;49.394;11.136;2023-07-30T12:11:06;3.70;;;2.63;;
3197;SDS011;1611;49.394;11.136;2023-07-30T12:13:41;3.70;;;2.73;;
3197;SDS011;1611;49.394;11.136;2023-07-30T12:16:10;2.70;;;2.50;;
3197;SDS011;1611;49.394;11.136;2023-07-30T12:18:38;2.60;;;2.40;;
3197;SDS011;1611;49.394;11.136;2023-07-30T12:21:05;2.63;;;2.53;;
3197;SDS011;1611;49.394;11.136;2023-07-30T12:23:32;2.50;;;2.40;;
3197;SDS011;1611;49.394;11.136;2023-07-30T12:25:59;2.90;;;2.43;;
3197;SDS011;1611;49.394;11.136;2023-07-30T12:28:29;2.53;;;2.33;;
3197;SDS011;1611;49.394;11.136;2023-07-30T12:30:57;2.47;;;2.37;;
3197;SDS011;1611;49.394;11.136;2023-07-30T12:33:24;2.40;;;2.30;;
3197;SDS011;1611;49.394;11.136;2023-07-30T12:35:51;2.77;;;2.67;;
3197;SDS011;1611;49.394;11.136;2023-07-30T12:38:18;2.80;;;2.60;;
3197;SDS011;1611;49.394;11.136;2023-07-30T12:40:45;2.60;;;2.50;;
3197;SDS011;1611;49.394;11.136;2023-07-30T12:43:11;2.27;;;2.10;;
3197;SDS011;1611;49.394;11.136;2023-07-30T12:45:39;5.50;;;2.60;;
3197;SDS011;1611;49.394;11.136;2023-07-30T12:48:07;3.07;;;2.87;;
3197;SDS011;1611;49.394;11.136;2023-07-30T12:50:34;2.73;;;2.63;;
3197;SDS011;1611;49.394;11.136;2023-07-30T12:53:00;2.30;;;2.10;;
3197;SDS011;1611;49.394;11.136;2023-07-30T12:55:27;3.23;;;2.80;;
3197;SDS011;1611;49.394;11.136;2023-07-30T12:57:54;3.37;;;3.07;;
3197;SDS011;1611;49.394;11.136;2023-07-30T13:00:21;5.90;;;2.67;;
3197;SDS011;1611;49.394;11.136;2023-07-30T13:02:48;3.70;;;2.77;;
3197;SDS011;1611;49.394;11.136;2023-07-30T13:05:18;5.03;;;2.90;;
3197;SDS011;1611;49.394;11.136;2023-07-30T13:07:45;7.50;;;2.80;;
3197;SDS011;1611;49.394;11.136;2023-07-30T13:10:12;3.10;;;3.00;;
3197;SDS011;1611;49.394;11.136;2023-07-30T13:12:42;3.53;;;3.17;;
3197;SDS011;1611;49.394;11.136;2023-07-30T13:15:16;2.77;;;2.67;;
3197;SDS011;1611;49.394;11.136;2023-07-30T13:17:59;2.63;;;2.53;;
3197;SDS011;1611;49.394;11.136;2023-07-30T13:20:32;3.10;;;2.90;;
3197;SDS011;1611;49.394;11.136;2023-07-30T13:23:02;3.20;;;3.00;;
3197;SDS011;1611;49.394;11.136;2023-07-30T13:25:28;3.23;;;3.03;;
3197;SDS011;1611;49.394;11.136;2023-07-30T13:27:55;3.70;;;3.47;;
3197;SDS011;1611;49.394;11.136;2023-07-30T13:30:22;3.30;;;3.10;;
3197;SDS011;1611;49.394;11.136;2023-07-30T13:32:49;2.80;;;2.70;;
3197;SDS011;1611;49.394;11.136;2023-07-30T13:35:16;3.70;;;3.40;;
3197;SDS011;1611;49.394;11.136;2023-07-30T13:37:44;3.73;;;3.43;;
3197;SDS011;1611;49.394;11.136;2023-07-30T13:40:11;3.63;;;3.43;;
3197;SDS011;1611;49.394;11.136;2023-07-30T13:42:38;3.47;;;3.33;;
3197;SDS011;1611;49.394;11.136;2023-07-30T13:45:08;5.10;;;3.60;;
3197;SDS011;1611;49.394;11.136;2023-07-30T13:47:35;3.80;;;3.50;;
3197;SDS011;1611;49.394;11.136;2023-07-30T13:50:02;8.63;;;3.80;;
3197;SDS011;1611;49.394;11.136;2023-07-30T13:52:29;4.83;;;3.90;;
3197;SDS011;1611;49.394;11.136;2023-07-30T13:54:57;3.00;;;2.80;;
3197;SDS011;1611;49.394;11.136;2023-07-30T13:57:24;6.70;;;2.53;;
3197;SDS011;1611;49.394;11.136;2023-07-30T13:59:51;3.33;;;2.50;;
3197;SDS011;1611;49.394;11.136;2023-07-30T14:02:18;3.27;;;2.30;;
3197;SDS011;1611;49.394;11.136;2023-07-30T14:04:45;2.80;;;2.60;;
3197;SDS011;1611;49.394;11.136;2023-07-30T14:07:12;5.47;;;3.03;;
3197;SDS011;1611;49.394;11.136;2023-07-30T14:09:39;2.33;;;2.23;;
3197;SDS011;1611;49.394;11.136;2023-07-30T14:12:09;9.50;;;2.40;;
3197;SDS011;1611;49.394;11.136;2023-07-30T14:14:35;2.67;;;2.50;;
3197;SDS011;1611;49.394;11.136;2023-07-30T14:17:02;2.20;;;2.10;;
3197;SDS011;1611;49.394;11.136;2023-07-30T14:19:32;4.23;;;2.87;;
3197;SDS011;1611;49.394;11.136;2023-07-30T14:21:59;2.60;;;2.40;;
3197;SDS011;1611;49.394;11.136;2023-07-30T14:24:25;2.90;;;2.80;;
3197;SDS011;1611;49.394;11.136;2023-07-30T14:26:52;2.30;;;2.10;;
3197;SDS011;1611;49.394;11.136;2023-07-30T14:29:20;2.67;;;2.57;;
3197;SDS011;1611;49.394;11.136;2023-07-30T14:31:47;2.93;;;2.50;;
3197;SDS011;1611;49.394;11.136;2023-07-30T14:34:14;2.37;;;2.27;;
3197;SDS011;1611;49.394;11.136;2023-07-30T14:36:41;4.20;;;2.83;;
3197;SDS011;1611;49.394;11.136;2023-07-30T14:39:08;2.80;;;2.70;;
3197;SDS011;1611;49.394;11.136;2023-07-30T14:41:35;2.43;;;2.23;;
3197;SDS011;1611;49.394;11.136;2023-07-30T14:44:02;3.50;;;2.70;;
3197;SDS011;1611;49.394;11.136;2023-07-30T14:46:30;3.53;;;2.63;;
3197;SDS011;1611;49.394;11.136;2023-07-30T14:48:57;2.83;;;2.70;;
3197;SDS011;1611;49.394;11.136;2023-07-30T14:51:23;2.83;;;2.43;;
3197;SDS011;1611;49.394;11.136;2023-07-30T14:53:50;2.77;;;2.60;;
3197;SDS011;1611;49.394;11.136;2023-07-30T14:56:17;12.13;;;2.73;;
3197;SDS011;1611;49.394;11.136;2023-07-30T14:58:44;3.43;;;2.30;;
3197;SDS011;1611;49.394;11.136;2023-07-30T15:01:10;2.27;;;2.17;;
3197;SDS011;1611;49.394;11.136;2023-07-30T15:03:39;2.90;;;2.70;;
3197;SDS011;1611;49.394;11.136;2023-07-30T15:06:05;2.83;;;2.60;;
3197;SDS011;1611;49.394;11.136;2023-07-30T15:08:32;3.23;;;3.00;;